createdAt,value
2022-12-24T00:00:18.701Z,74.42
2022-12-24T00:01:18.611Z,74.42
2022-12-24T00:02:18.678Z,74.42
2022-12-24T00:03:18.729Z,74.32
2022-12-24T00:04:18.574Z,74.42
2022-12-24T00:05:18.576Z,74.42
2022-12-24T00:06:18.551Z,74.32
2022-12-24T00:07:18.538Z,74.32
2022-12-24T00:08:18.526Z,74.84
2022-12-24T00:09:18.510Z,74.94
2022-12-24T00:10:18.502Z,74.63
2022-12-24T00:11:18.512Z,75.25
2022-12-24T00:12:18.463Z,74.73
2022-12-24T00:13:18.473Z,74.84
2022-12-24T00:14:18.459Z,75.04
2022-12-24T00:15:18.424Z,75.04
2022-12-24T00:16:18.458Z,75.04
2022-12-24T00:17:18.400Z,75.45
2022-12-24T00:18:18.387Z,75.04
2022-12-24T00:19:18.373Z,75.04
2022-12-24T00:20:18.355Z,75.66
2022-12-24T00:21:18.349Z,75.35
2022-12-24T00:22:18.329Z,75.66
2022-12-24T00:23:18.321Z,75.45
2022-12-24T00:24:18.304Z,76.07
2022-12-24T00:25:18.292Z,75.45
2022-12-24T00:26:18.283Z,75.45
2022-12-24T00:27:18.292Z,75.66
2022-12-24T00:28:18.251Z,74.94
2022-12-24T00:29:18.240Z,74.63
2022-12-24T00:30:18.235Z,74.73
2022-12-24T00:31:18.335Z,74.63
2022-12-24T00:32:18.198Z,74.53
2022-12-24T00:33:24.122Z,74.94
2022-12-24T00:34:19.211Z,75.25
2022-12-24T00:35:18.156Z,74.63
2022-12-24T00:36:18.149Z,74.63
2022-12-24T00:37:18.132Z,74.73
2022-12-24T00:38:18.148Z,74.73
2022-12-24T00:39:18.104Z,74.73
2022-12-24T00:40:18.105Z,74.84
2022-12-24T00:41:18.081Z,75.66
2022-12-24T00:42:18.063Z,76.89
2022-12-24T00:43:18.075Z,77.51
2022-12-24T00:44:18.036Z,76.28
2022-12-24T00:45:18.025Z,75.04
2022-12-24T00:46:18.065Z,75.04
2022-12-24T00:47:17.999Z,74.94
2022-12-24T00:48:17.983Z,75.04
2022-12-24T00:49:17.972Z,76.28
2022-12-24T00:50:17.956Z,75.45
2022-12-24T00:51:18.088Z,75.14
2022-12-24T00:52:17.933Z,75.76
2022-12-24T00:53:17.924Z,75.76
2022-12-24T00:54:17.916Z,75.56
2022-12-24T00:55:17.895Z,75.25
2022-12-24T00:56:17.881Z,75.04
2022-12-24T00:57:17.867Z,76.07
2022-12-24T00:58:17.836Z,75.25
2022-12-24T00:59:17.870Z,74.94
2022-12-24T01:00:17.844Z,74.94
2022-12-24T01:01:17.929Z,74.94
2022-12-24T01:02:18.003Z,74.84
2022-12-24T01:03:17.856Z,74.84
2022-12-24T01:04:17.773Z,74.94
2022-12-24T01:05:17.765Z,74.84
2022-12-24T01:06:17.748Z,74.84
2022-12-24T01:07:17.723Z,74.94
2022-12-24T01:08:17.705Z,74.63
2022-12-24T01:09:17.706Z,74.53
2022-12-24T01:10:17.707Z,74.73
2022-12-24T01:11:17.680Z,74.63
2022-12-24T01:12:17.653Z,74.84
2022-12-24T01:13:17.659Z,74.73
2022-12-24T01:14:17.638Z,74.84
2022-12-24T01:15:17.655Z,75.35
2022-12-24T01:16:17.738Z,75.25
2022-12-24T01:17:17.601Z,75.14
2022-12-24T01:18:17.592Z,74.84
2022-12-24T01:19:17.578Z,74.84
2022-12-24T01:20:17.570Z,74.84
2022-12-24T01:21:17.548Z,75.76
2022-12-24T01:22:17.537Z,75.14
2022-12-24T01:23:17.525Z,74.84
2022-12-24T01:24:17.511Z,74.94
2022-12-24T01:25:17.499Z,75.04
2022-12-24T01:26:17.480Z,75.04
2022-12-24T01:27:17.473Z,74.94
2022-12-24T01:28:17.452Z,75.04
2022-12-24T01:29:17.439Z,75.25
2022-12-24T01:30:17.426Z,74.94
2022-12-24T01:31:17.521Z,74.94
2022-12-24T01:32:17.410Z,74.84
2022-12-24T01:33:17.388Z,74.73
2022-12-24T01:34:17.373Z,74.84
2022-12-24T01:35:17.368Z,75.04
2022-12-24T01:36:17.346Z,75.04
2022-12-24T01:37:17.333Z,74.94
2022-12-24T01:38:17.317Z,74.84
2022-12-24T01:39:17.312Z,74.63
2022-12-24T01:40:17.292Z,74.53
2022-12-24T01:41:17.284Z,74.63
2022-12-24T01:42:17.266Z,74.63
2022-12-24T01:43:17.260Z,74.63
2022-12-24T01:44:17.238Z,74.73
2022-12-24T01:45:17.230Z,74.63
2022-12-24T01:46:17.266Z,74.63
2022-12-24T01:47:17.225Z,74.63
2022-12-24T01:48:17.185Z,74.84
2022-12-24T01:49:17.174Z,74.63
2022-12-24T01:50:17.174Z,74.63
2022-12-24T01:51:17.153Z,74.63
2022-12-24T01:52:17.143Z,74.63
2022-12-24T01:53:17.141Z,74.63
2022-12-24T01:54:17.107Z,74.63
2022-12-24T01:55:17.106Z,74.63
2022-12-24T01:56:17.092Z,74.42
2022-12-24T01:57:17.078Z,74.53
2022-12-24T01:58:17.058Z,74.63
2022-12-24T01:59:17.055Z,74.73
2022-12-24T02:00:17.024Z,74.63
2022-12-24T02:01:17.121Z,74.63
2022-12-24T02:02:17.158Z,74.53
2022-12-24T02:03:17.072Z,74.53
2022-12-24T02:04:16.977Z,74.53
2022-12-24T02:05:16.977Z,74.63
2022-12-24T02:06:16.948Z,74.63
2022-12-24T02:07:16.935Z,74.63
2022-12-24T02:08:16.918Z,74.63
2022-12-24T02:09:16.907Z,74.53
2022-12-24T02:10:16.895Z,74.42
2022-12-24T02:11:16.881Z,74.63
2022-12-24T02:12:16.868Z,74.63
2022-12-24T02:13:16.852Z,74.63
2022-12-24T02:14:16.867Z,74.63
2022-12-24T02:15:16.827Z,74.63
2022-12-24T02:16:16.914Z,74.73
2022-12-24T02:17:16.802Z,74.73
2022-12-24T02:18:16.795Z,74.73
2022-12-24T02:19:16.800Z,74.73
2022-12-24T02:20:16.774Z,74.63
2022-12-24T02:21:16.770Z,74.53
2022-12-24T02:22:16.759Z,74.53
2022-12-24T02:23:16.759Z,74.63
2022-12-24T02:24:16.719Z,74.63
2022-12-24T02:25:16.775Z,74.53
2022-12-24T02:26:16.712Z,74.53
2022-12-24T02:27:16.709Z,74.53
2022-12-24T02:28:16.652Z,74.63
2022-12-24T02:29:16.639Z,74.63
2022-12-24T02:30:16.630Z,74.63
2022-12-24T02:31:16.667Z,74.63
2022-12-24T02:32:16.597Z,74.53
2022-12-24T02:33:16.584Z,74.53
2022-12-24T02:34:16.577Z,74.63
2022-12-24T02:35:16.582Z,74.63
2022-12-24T02:36:16.543Z,74.53
2022-12-24T02:37:16.533Z,74.53
2022-12-24T02:38:22.523Z,74.53
2022-12-24T02:39:16.505Z,74.63
2022-12-24T02:40:17.046Z,74.53
2022-12-24T02:41:16.479Z,74.53
2022-12-24T02:42:16.462Z,74.53
2022-12-24T02:43:16.452Z,74.42
2022-12-24T02:44:16.437Z,74.53
2022-12-24T02:45:16.425Z,74.63
2022-12-24T02:46:16.478Z,74.53
2022-12-24T02:47:16.382Z,74.53
2022-12-24T02:48:16.373Z,74.53
2022-12-24T02:49:16.366Z,74.63
2022-12-24T02:50:16.349Z,74.63
2022-12-24T02:51:16.360Z,74.53
2022-12-24T02:52:16.323Z,74.53
2022-12-24T02:53:16.311Z,74.53
2022-12-24T02:54:16.301Z,74.63
2022-12-24T02:55:16.284Z,74.63
2022-12-24T02:56:16.269Z,74.63
2022-12-24T02:57:16.257Z,74.73
2022-12-24T02:58:16.244Z,74.73
2022-12-24T02:59:16.229Z,74.73
2022-12-24T03:00:16.219Z,74.73
2022-12-24T03:01:16.588Z,74.63
2022-12-24T03:02:16.297Z,74.63
2022-12-24T03:03:16.177Z,74.63
2022-12-24T03:04:16.177Z,74.63
2022-12-24T03:05:16.149Z,74.63
2022-12-24T03:06:16.139Z,74.63
2022-12-24T03:07:16.151Z,74.63
2022-12-24T03:08:16.107Z,74.53
2022-12-24T03:09:16.095Z,74.63
2022-12-24T03:10:16.086Z,74.63
2022-12-24T03:11:16.073Z,74.63
2022-12-24T03:12:16.057Z,74.53
2022-12-24T03:13:16.043Z,74.53
2022-12-24T03:14:16.028Z,74.63
2022-12-24T03:15:16.016Z,74.63
2022-12-24T03:16:16.049Z,74.53
2022-12-24T03:17:15.989Z,74.53
2022-12-24T03:18:15.974Z,74.53
2022-12-24T03:19:15.966Z,74.63
2022-12-24T03:20:15.953Z,74.53
2022-12-24T03:21:15.932Z,74.53
2022-12-24T03:22:15.924Z,74.42
2022-12-24T03:23:15.937Z,74.63
2022-12-24T03:24:15.892Z,74.63
2022-12-24T03:25:15.983Z,74.73
2022-12-24T03:26:15.865Z,74.63
2022-12-24T03:27:15.856Z,74.53
2022-12-24T03:28:15.842Z,74.63
2022-12-24T03:29:15.832Z,74.63
2022-12-24T03:30:15.831Z,74.63
2022-12-24T03:31:15.899Z,74.63
2022-12-24T03:32:15.785Z,74.53
2022-12-24T03:33:15.777Z,74.63
2022-12-24T03:34:15.758Z,74.53
2022-12-24T03:35:15.749Z,74.53
2022-12-24T03:36:15.733Z,74.53
2022-12-24T03:37:15.719Z,74.63
2022-12-24T03:38:15.711Z,74.63
2022-12-24T03:39:15.725Z,74.53
2022-12-24T03:40:15.679Z,74.53
2022-12-24T03:41:15.706Z,74.63
2022-12-24T03:42:15.653Z,74.63
2022-12-24T03:43:15.638Z,74.63
2022-12-24T03:44:15.626Z,74.63
2022-12-24T03:45:15.612Z,74.63
2022-12-24T03:46:15.615Z,74.63
2022-12-24T03:47:15.598Z,74.63
2022-12-24T03:48:15.574Z,74.53
2022-12-24T03:49:15.558Z,74.53
2022-12-24T03:50:15.544Z,74.53
2022-12-24T03:51:15.534Z,74.53
2022-12-24T03:52:15.523Z,74.53
2022-12-24T03:53:15.504Z,74.53
2022-12-24T03:54:15.493Z,74.53
2022-12-24T03:55:15.501Z,74.53
2022-12-24T03:56:15.466Z,74.53
2022-12-24T03:57:15.453Z,74.42
2022-12-24T03:58:15.444Z,74.53
2022-12-24T03:59:15.425Z,74.53
2022-12-24T04:00:15.415Z,74.63
2022-12-24T04:01:15.651Z,74.53
2022-12-24T04:02:15.596Z,74.42
2022-12-24T04:03:15.496Z,74.42
2022-12-24T04:04:15.360Z,74.42
2022-12-24T04:05:15.343Z,74.42
2022-12-24T04:06:15.330Z,74.42
2022-12-24T04:07:15.320Z,74.32
2022-12-24T04:08:15.304Z,74.32
2022-12-24T04:09:15.291Z,74.32
2022-12-24T04:10:15.279Z,74.32
2022-12-24T04:11:15.287Z,74.42
2022-12-24T04:12:15.258Z,74.42
2022-12-24T04:13:15.239Z,74.32
2022-12-24T04:14:15.224Z,74.32
2022-12-24T04:15:15.208Z,74.42
2022-12-24T04:16:15.297Z,74.42
2022-12-24T04:17:15.184Z,74.32
2022-12-24T04:18:15.170Z,74.32
2022-12-24T04:19:15.167Z,74.42
2022-12-24T04:20:15.167Z,74.32
2022-12-24T04:21:15.136Z,74.32
2022-12-24T04:22:21.126Z,74.32
2022-12-24T04:23:15.102Z,74.32
2022-12-24T04:24:15.092Z,74.32
2022-12-24T04:25:15.073Z,74.32
2022-12-24T04:26:15.101Z,74.32
2022-12-24T04:27:15.069Z,74.42
2022-12-24T04:28:15.036Z,74.32
2022-12-24T04:29:15.027Z,74.32
2022-12-24T04:30:15.012Z,74.32
2022-12-24T04:31:15.021Z,74.32
2022-12-24T04:32:15.100Z,74.32
2022-12-24T04:33:14.983Z,74.32
2022-12-24T04:34:14.965Z,74.32
2022-12-24T04:35:14.941Z,74.32
2022-12-24T04:36:14.945Z,74.32
2022-12-24T04:37:14.913Z,74.32
2022-12-24T04:38:14.904Z,74.32
2022-12-24T04:39:14.888Z,74.32
2022-12-24T04:40:14.876Z,74.22
2022-12-24T04:41:22.715Z,74.32
2022-12-24T04:42:15.886Z,74.32
2022-12-24T04:43:14.857Z,74.32
2022-12-24T04:44:14.831Z,74.22
2022-12-24T04:45:14.806Z,74.22
2022-12-24T04:46:14.865Z,74.32
2022-12-24T04:47:14.787Z,74.22
2022-12-24T04:48:14.769Z,74.22
2022-12-24T04:49:14.754Z,74.22
2022-12-24T04:50:14.755Z,74.22
2022-12-24T04:51:14.728Z,74.22
2022-12-24T04:52:14.716Z,74.22
2022-12-24T04:53:14.702Z,74.22
2022-12-24T04:54:14.689Z,74.22
2022-12-24T04:55:20.678Z,74.22
2022-12-24T04:56:14.662Z,74.22
2022-12-24T04:57:14.653Z,74.22
2022-12-24T04:58:14.633Z,74.12
2022-12-24T04:59:14.647Z,74.12
2022-12-24T05:00:14.625Z,74.12
2022-12-24T05:01:14.770Z,74.22
2022-12-24T05:02:14.868Z,74.22
2022-12-24T05:03:14.654Z,74.22
2022-12-24T05:04:14.578Z,74.12
2022-12-24T05:05:14.540Z,74.12
2022-12-24T05:06:14.528Z,74.22
2022-12-24T05:07:14.513Z,74.12
2022-12-24T05:08:14.501Z,74.22
2022-12-24T05:09:14.503Z,74.22
2022-12-24T05:10:14.473Z,74.12
2022-12-24T05:11:14.461Z,74.22
2022-12-24T05:12:14.450Z,74.12
2022-12-24T05:13:14.445Z,74.12
2022-12-24T05:14:14.422Z,74.12
2022-12-24T05:15:14.437Z,74.12
2022-12-24T05:16:14.501Z,74.12
2022-12-24T05:17:14.513Z,74.22
2022-12-24T05:18:14.380Z,74.12
2022-12-24T05:19:14.557Z,74.12
2022-12-24T05:20:14.341Z,74.12
2022-12-24T05:21:14.335Z,74.12
2022-12-24T05:22:14.322Z,74.12
2022-12-24T05:23:14.299Z,74.12
2022-12-24T05:24:14.287Z,74.12
2022-12-24T05:25:14.276Z,74.12
2022-12-24T05:26:14.261Z,74.12
2022-12-24T05:27:14.247Z,74.12
2022-12-24T05:28:14.235Z,74.12
2022-12-24T05:29:14.303Z,74.12
2022-12-24T05:30:14.206Z,74.12
2022-12-24T05:31:14.250Z,74.12
2022-12-24T05:32:14.197Z,74.12
2022-12-24T05:33:14.165Z,74.12
2022-12-24T05:34:14.162Z,74.12
2022-12-24T05:35:14.140Z,74.12
2022-12-24T05:36:14.131Z,74.12
2022-12-24T05:37:14.113Z,74.12
2022-12-24T05:38:14.101Z,74.01
2022-12-24T05:39:15.943Z,74.01
2022-12-24T05:40:14.084Z,74.01
2022-12-24T05:41:14.056Z,74.01
2022-12-24T05:42:14.049Z,74.01
2022-12-24T05:43:14.031Z,74.01
2022-12-24T05:44:14.020Z,74.01
2022-12-24T05:45:14.008Z,74.01
2022-12-24T05:46:14.036Z,74.01
2022-12-24T05:47:14.004Z,74.01
2022-12-24T05:48:13.973Z,74.01
2022-12-24T05:49:13.958Z,74.01
2022-12-24T05:50:13.937Z,74.01
2022-12-24T05:51:13.924Z,74.01
2022-12-24T05:52:13.913Z,74.01
2022-12-24T05:53:13.899Z,74.12
2022-12-24T05:54:13.885Z,74.12
2022-12-24T05:55:13.869Z,74.01
2022-12-24T05:56:13.871Z,74.01
2022-12-24T05:57:13.847Z,74.01
2022-12-24T05:58:13.830Z,74.01
2022-12-24T05:59:13.820Z,74.01
2022-12-24T06:00:13.815Z,74.01
2022-12-24T06:01:13.876Z,74.01
2022-12-24T06:02:13.827Z,74.01
2022-12-24T06:03:13.808Z,74.01
2022-12-24T06:04:13.840Z,74.01
2022-12-24T06:05:13.857Z,74.01
2022-12-24T06:06:13.728Z,74.01
2022-12-24T06:07:13.729Z,74.01
2022-12-24T06:08:13.695Z,74.01
2022-12-24T06:09:13.692Z,74.01
2022-12-24T06:10:13.670Z,74.01
2022-12-24T06:11:13.656Z,74.01
2022-12-24T06:12:13.644Z,74.01
2022-12-24T06:13:13.633Z,74.01
2022-12-24T06:14:13.675Z,74.01
2022-12-24T06:15:17.457Z,74.01
2022-12-24T06:16:14.773Z,74.01
2022-12-24T06:17:13.576Z,74.01
2022-12-24T06:18:13.586Z,74.01
2022-12-24T06:19:13.572Z,74.01
2022-12-24T06:20:13.538Z,74.01
2022-12-24T06:21:13.522Z,74.01
2022-12-24T06:22:13.515Z,74.01
2022-12-24T06:23:13.496Z,74.01
2022-12-24T06:24:13.492Z,74.01
2022-12-24T06:25:13.471Z,74.01
2022-12-24T06:26:13.459Z,74.01
2022-12-24T06:27:13.442Z,74.01
2022-12-24T06:28:13.430Z,74.01
2022-12-24T06:29:13.416Z,74.01
2022-12-24T06:30:13.419Z,74.01
2022-12-24T06:31:13.603Z,74.01
2022-12-24T06:32:13.388Z,74.01
2022-12-24T06:33:13.365Z,74.01
2022-12-24T06:34:13.352Z,74.01
2022-12-24T06:35:13.362Z,74.01
2022-12-24T06:36:17.215Z,74.01
2022-12-24T06:37:13.308Z,74.01
2022-12-24T06:38:13.299Z,74.01
2022-12-24T06:39:13.283Z,74.01
2022-12-24T06:40:13.271Z,74.01
2022-12-24T06:41:13.269Z,74.01
2022-12-24T06:42:13.244Z,74.01
2022-12-24T06:43:13.233Z,74.01
2022-12-24T06:44:13.221Z,74.01
2022-12-24T06:45:13.211Z,73.91
2022-12-24T06:46:13.253Z,73.91
2022-12-24T06:47:13.176Z,73.91
2022-12-24T06:48:13.163Z,73.91
2022-12-24T06:49:13.151Z,74.01
2022-12-24T06:50:13.141Z,74.01
2022-12-24T06:51:13.165Z,73.91
2022-12-24T06:52:13.113Z,73.91
2022-12-24T06:53:13.095Z,73.91
2022-12-24T06:54:13.084Z,73.91
2022-12-24T06:55:13.077Z,73.91
2022-12-24T06:56:13.055Z,73.91
2022-12-24T06:57:13.043Z,73.91
2022-12-24T06:58:13.030Z,73.91
2022-12-24T06:59:13.033Z,73.91
2022-12-24T07:00:13.006Z,73.91
2022-12-24T07:01:13.135Z,73.91
2022-12-24T07:02:13.101Z,73.91
2022-12-24T07:03:12.962Z,73.91
2022-12-24T07:04:19.710Z,73.91
2022-12-24T07:05:13.979Z,73.91
2022-12-24T07:06:12.923Z,73.91
2022-12-24T07:07:12.934Z,73.91
2022-12-24T07:08:12.898Z,73.91
2022-12-24T07:09:12.879Z,73.91
2022-12-24T07:10:12.878Z,73.91
2022-12-24T07:11:12.861Z,73.91
2022-12-24T07:12:12.843Z,73.91
2022-12-24T07:13:12.828Z,73.91
2022-12-24T07:14:12.816Z,73.91
2022-12-24T07:15:12.811Z,73.91
2022-12-24T07:16:12.922Z,73.91
2022-12-24T07:17:13.027Z,73.91
2022-12-24T07:18:12.764Z,73.91
2022-12-24T07:19:12.752Z,73.91
2022-12-24T07:20:12.736Z,73.91
2022-12-24T07:21:12.780Z,73.91
2022-12-24T07:22:15.671Z,73.91
2022-12-24T07:23:12.723Z,73.91
2022-12-24T07:24:12.683Z,73.91
2022-12-24T07:25:12.680Z,73.80
2022-12-24T07:26:12.659Z,73.80
2022-12-24T07:27:12.643Z,73.91
2022-12-24T07:28:12.631Z,73.91
2022-12-24T07:29:12.620Z,73.91
2022-12-24T07:30:12.604Z,73.91
2022-12-24T07:31:12.655Z,73.80
2022-12-24T07:32:12.577Z,73.80
2022-12-24T07:33:12.563Z,73.80
2022-12-24T07:34:12.553Z,73.80
2022-12-24T07:35:12.533Z,73.80
2022-12-24T07:36:12.539Z,73.80
2022-12-24T07:37:12.508Z,73.80
2022-12-24T07:38:12.497Z,73.80
2022-12-24T07:39:12.504Z,73.80
2022-12-24T07:40:12.471Z,73.80
2022-12-24T07:41:12.455Z,73.80
2022-12-24T07:42:12.444Z,73.80
2022-12-24T07:43:12.428Z,73.80
2022-12-24T07:44:12.418Z,73.80
2022-12-24T07:45:12.400Z,73.80
2022-12-24T07:46:12.417Z,73.80
2022-12-24T07:47:12.444Z,73.80
2022-12-24T07:48:12.364Z,73.80
2022-12-24T07:49:12.350Z,73.80
2022-12-24T07:50:12.340Z,73.80
2022-12-24T07:51:12.323Z,73.80
2022-12-24T07:52:12.312Z,73.80
2022-12-24T07:53:12.293Z,73.70
2022-12-24T07:54:12.283Z,73.80
2022-12-24T07:55:12.288Z,73.70
2022-12-24T07:56:13.158Z,73.70
2022-12-24T07:57:12.244Z,73.70
2022-12-24T07:58:12.226Z,73.70
2022-12-24T07:59:12.216Z,73.80
2022-12-24T08:00:12.198Z,73.70
2022-12-24T08:01:12.278Z,73.70
2022-12-24T08:02:17.987Z,73.70
2022-12-24T08:03:13.339Z,73.70
2022-12-24T08:04:12.195Z,73.70
2022-12-24T08:05:12.137Z,73.70
2022-12-24T08:06:12.122Z,73.70
2022-12-24T08:07:12.114Z,73.70
2022-12-24T08:08:12.097Z,73.70
2022-12-24T08:09:12.088Z,73.70
2022-12-24T08:10:12.068Z,73.80
2022-12-24T08:11:12.103Z,73.70
2022-12-24T08:12:12.043Z,73.70
2022-12-24T08:13:12.028Z,73.70
2022-12-24T08:14:12.016Z,73.70
2022-12-24T08:15:11.999Z,73.70
2022-12-24T08:16:12.074Z,73.70
2022-12-24T08:17:11.973Z,73.70
2022-12-24T08:18:11.972Z,73.70
2022-12-24T08:19:11.949Z,73.70
2022-12-24T08:20:11.932Z,73.70
2022-12-24T08:21:11.926Z,73.70
2022-12-24T08:22:11.907Z,73.70
2022-12-24T08:23:11.906Z,73.70
2022-12-24T08:24:11.880Z,73.70
2022-12-24T08:25:11.866Z,73.60
2022-12-24T08:26:11.851Z,73.70
2022-12-24T08:27:11.881Z,73.60
2022-12-24T08:28:11.824Z,73.60
2022-12-24T08:29:11.848Z,73.60
2022-12-24T08:30:16.053Z,73.60
2022-12-24T08:31:12.944Z,73.60
2022-12-24T08:32:11.872Z,73.60
2022-12-24T08:33:11.760Z,73.60
2022-12-24T08:34:11.751Z,73.60
2022-12-24T08:35:11.732Z,73.60
2022-12-24T08:36:11.717Z,73.60
2022-12-24T08:37:11.705Z,73.60
2022-12-24T08:38:11.692Z,73.60
2022-12-24T08:39:11.689Z,73.60
2022-12-24T08:40:11.665Z,73.50
2022-12-24T08:41:11.652Z,73.50
2022-12-24T08:42:11.699Z,73.50
2022-12-24T08:43:11.655Z,73.50
2022-12-24T08:44:11.619Z,73.50
2022-12-24T08:45:11.648Z,73.50
2022-12-24T08:46:11.672Z,73.50
2022-12-24T08:47:11.587Z,73.50
2022-12-24T08:48:11.562Z,73.50
2022-12-24T08:49:11.553Z,73.50
2022-12-24T08:50:11.535Z,73.50
2022-12-24T08:51:11.523Z,73.50
2022-12-24T08:52:11.512Z,73.50
2022-12-24T08:53:11.527Z,73.50
2022-12-24T08:54:11.485Z,73.50
2022-12-24T08:55:11.471Z,73.50
2022-12-24T08:56:11.470Z,73.50
2022-12-24T08:57:11.445Z,73.50
2022-12-24T08:58:11.431Z,73.50
2022-12-24T08:59:11.457Z,73.50
2022-12-24T09:00:11.403Z,73.50
2022-12-24T09:01:11.550Z,73.50
2022-12-24T09:02:11.544Z,73.50
2022-12-24T09:03:13.012Z,73.50
2022-12-24T09:04:11.363Z,73.50
2022-12-24T09:05:11.336Z,73.50
2022-12-24T09:06:11.325Z,73.50
2022-12-24T09:07:11.313Z,73.40
2022-12-24T09:08:11.296Z,73.40
2022-12-24T09:09:11.294Z,73.40
2022-12-24T09:10:11.269Z,73.40
2022-12-24T09:11:11.259Z,73.40
2022-12-24T09:12:11.243Z,73.40
2022-12-24T09:13:11.232Z,73.40
2022-12-24T09:14:11.214Z,73.40
2022-12-24T09:15:11.225Z,73.40
2022-12-24T09:16:11.266Z,73.40
2022-12-24T09:17:11.176Z,73.50
2022-12-24T09:18:11.161Z,73.40
2022-12-24T09:19:11.158Z,73.50
2022-12-24T09:20:11.139Z,73.40
2022-12-24T09:21:11.123Z,73.40
2022-12-24T09:22:11.108Z,73.40
2022-12-24T09:23:11.099Z,73.40
2022-12-24T09:24:11.081Z,73.40
2022-12-24T09:25:11.074Z,73.40
2022-12-24T09:26:11.053Z,73.40
2022-12-24T09:27:11.042Z,73.40
2022-12-24T09:28:11.028Z,73.40
2022-12-24T09:29:11.016Z,73.40
2022-12-24T09:30:11.004Z,73.40
2022-12-24T09:31:11.015Z,73.50
2022-12-24T09:32:11.080Z,73.40
2022-12-24T09:33:10.964Z,73.40
2022-12-24T09:34:10.950Z,73.40
2022-12-24T09:35:10.955Z,73.40
2022-12-24T09:36:10.917Z,73.40
2022-12-24T09:37:10.948Z,73.40
2022-12-24T09:38:10.898Z,73.40
2022-12-24T09:39:10.883Z,73.29
2022-12-24T09:40:10.870Z,73.29
2022-12-24T09:41:10.854Z,73.29
2022-12-24T09:42:10.847Z,73.29
2022-12-24T09:43:10.826Z,73.50
2022-12-24T09:44:10.833Z,73.50
2022-12-24T09:45:10.806Z,73.40
2022-12-24T09:46:10.831Z,73.40
2022-12-24T09:47:10.798Z,73.40
2022-12-24T09:48:10.762Z,73.50
2022-12-24T09:49:10.757Z,73.40
2022-12-24T09:50:10.731Z,73.40
2022-12-24T09:51:10.724Z,73.29
2022-12-24T09:52:10.706Z,73.40
2022-12-24T09:53:10.694Z,73.40
2022-12-24T09:54:10.678Z,73.40
2022-12-24T09:55:10.665Z,73.29
2022-12-24T09:56:10.656Z,73.40
2022-12-24T09:57:10.640Z,73.40
2022-12-24T09:58:10.643Z,73.40
2022-12-24T09:59:10.613Z,73.40
2022-12-24T10:00:10.615Z,73.29
2022-12-24T10:01:10.736Z,73.29
2022-12-24T10:02:10.630Z,73.40
2022-12-24T10:03:10.654Z,73.29
2022-12-24T10:04:10.547Z,73.29
2022-12-24T10:05:10.534Z,73.29
2022-12-24T10:06:10.517Z,73.40
2022-12-24T10:07:10.535Z,73.29
2022-12-24T10:08:10.510Z,74.22
2022-12-24T10:09:10.498Z,73.60
2022-12-24T10:10:10.464Z,73.40
2022-12-24T10:11:10.463Z,73.40
2022-12-24T10:12:10.445Z,73.60
2022-12-24T10:13:10.454Z,73.40
2022-12-24T10:14:10.409Z,73.40
2022-12-24T10:15:10.408Z,73.29
2022-12-24T10:16:10.384Z,73.29
2022-12-24T10:17:10.520Z,73.19
2022-12-24T10:18:10.380Z,73.60
2022-12-24T10:19:10.384Z,74.32
2022-12-24T10:20:10.337Z,74.01
2022-12-24T10:21:10.318Z,74.32
2022-12-24T10:22:10.305Z,74.63
2022-12-24T10:23:10.293Z,74.84
2022-12-24T10:24:10.278Z,74.73
2022-12-24T10:25:10.267Z,73.91
2022-12-24T10:26:10.254Z,73.70
2022-12-24T10:27:10.241Z,74.12
2022-12-24T10:28:10.226Z,74.01
2022-12-24T10:29:10.214Z,73.80
2022-12-24T10:30:15.031Z,73.60
2022-12-24T10:31:11.368Z,73.50
2022-12-24T10:32:10.198Z,73.40
2022-12-24T10:33:10.158Z,73.40
2022-12-24T10:34:10.145Z,73.80
2022-12-24T10:35:10.162Z,74.01
2022-12-24T10:36:12.459Z,74.12
2022-12-24T10:37:10.103Z,74.12
2022-12-24T10:38:10.100Z,74.32
2022-12-24T10:39:10.082Z,74.12
2022-12-24T10:40:10.064Z,74.12
2022-12-24T10:41:10.055Z,74.32
2022-12-24T10:42:10.035Z,73.80
2022-12-24T10:43:10.032Z,74.01
2022-12-24T10:44:10.011Z,73.91
2022-12-24T10:45:09.998Z,74.01
2022-12-24T10:46:10.101Z,74.22
2022-12-24T10:47:09.969Z,74.12
2022-12-24T10:48:09.953Z,74.01
2022-12-24T10:49:09.943Z,73.70
2022-12-24T10:50:09.931Z,74.01
2022-12-24T10:51:09.940Z,73.91
2022-12-24T10:52:09.902Z,74.01
2022-12-24T10:53:09.888Z,73.91
2022-12-24T10:54:09.874Z,74.01
2022-12-24T10:55:09.863Z,73.91
2022-12-24T10:56:09.850Z,73.50
2022-12-24T10:57:09.835Z,73.80
2022-12-24T10:58:09.820Z,73.91
2022-12-24T10:59:09.809Z,74.01
2022-12-24T11:00:09.800Z,73.91
2022-12-24T11:01:09.927Z,74.01
2022-12-24T11:02:10.003Z,73.91
2022-12-24T11:03:09.918Z,73.70
2022-12-24T11:04:09.742Z,74.01
2022-12-24T11:05:09.741Z,74.12
2022-12-24T11:06:09.726Z,74.12
2022-12-24T11:07:09.725Z,73.91
2022-12-24T11:08:09.686Z,73.70
2022-12-24T11:09:09.704Z,73.80
2022-12-24T11:10:09.664Z,74.12
2022-12-24T11:11:09.643Z,74.01
2022-12-24T11:12:09.871Z,74.22
2022-12-24T11:13:36.710Z,74.53
2022-12-24T11:14:10.656Z,74.22
2022-12-24T11:15:09.595Z,73.80
2022-12-24T11:16:09.651Z,73.80
2022-12-24T11:17:09.575Z,74.01
2022-12-24T11:18:09.553Z,73.40
2022-12-24T11:19:09.542Z,73.50
2022-12-24T11:20:09.532Z,73.91
2022-12-24T11:21:09.521Z,73.91
2022-12-24T11:22:09.511Z,73.91
2022-12-24T11:23:09.512Z,74.12
2022-12-24T11:24:09.472Z,74.22
2022-12-24T11:25:09.463Z,74.01
2022-12-24T11:26:09.450Z,74.08
2022-12-24T11:27:09.437Z,74.12
2022-12-24T11:28:09.419Z,74.32
2022-12-24T11:29:09.407Z,73.80
2022-12-24T11:30:11.960Z,73.60
2022-12-24T11:31:09.448Z,73.80
2022-12-24T11:32:09.366Z,73.50
2022-12-24T11:33:09.353Z,74.01
2022-12-24T11:34:09.343Z,73.80
2022-12-24T11:35:09.327Z,74.01
2022-12-24T11:36:09.320Z,74.12
2022-12-24T11:37:14.687Z,73.91
2022-12-24T11:38:10.327Z,73.98
2022-12-24T11:39:09.300Z,74.08
2022-12-24T11:40:09.259Z,73.98
2022-12-24T11:41:09.249Z,73.77
2022-12-24T11:42:09.233Z,73.77
2022-12-24T11:43:14.620Z,73.88
2022-12-24T11:44:09.207Z,74.08
2022-12-24T11:45:09.201Z,73.98
2022-12-24T11:46:09.233Z,74.08
2022-12-24T11:47:09.173Z,73.98
2022-12-24T11:48:09.153Z,73.67
2022-12-24T11:49:09.183Z,73.77
2022-12-24T11:50:18.187Z,74.08
2022-12-24T11:51:10.159Z,74.18
2022-12-24T11:52:09.099Z,74.08
2022-12-24T11:53:09.088Z,74.18
2022-12-24T11:54:09.073Z,74.08
2022-12-24T11:55:15.750Z,73.98
2022-12-24T11:56:10.089Z,73.77
2022-12-24T11:57:09.036Z,73.77
2022-12-24T11:58:09.021Z,73.88
2022-12-24T11:59:09.016Z,73.88
2022-12-24T12:00:08.997Z,73.46
2022-12-24T12:01:15.269Z,73.77
2022-12-24T12:02:10.006Z,73.88
2022-12-24T12:03:08.987Z,73.88
2022-12-24T12:04:09.023Z,73.67
2022-12-24T12:05:08.930Z,73.77
2022-12-24T12:06:08.912Z,73.77
2022-12-24T12:07:14.497Z,73.77
2022-12-24T12:08:09.934Z,74.18
2022-12-24T12:09:08.878Z,73.67
2022-12-24T12:10:08.882Z,73.67
2022-12-24T12:11:08.877Z,73.46
2022-12-24T12:12:08.844Z,73.46
2022-12-24T12:13:15.049Z,73.77
2022-12-24T12:14:09.847Z,74.29
2022-12-24T12:15:08.798Z,74.39
2022-12-24T12:16:08.839Z,74.08
2022-12-24T12:17:08.767Z,73.67
2022-12-24T12:18:08.754Z,73.88
2022-12-24T12:19:14.806Z,73.67
2022-12-24T12:20:09.770Z,73.67
2022-12-24T12:21:08.714Z,73.77
2022-12-24T12:22:08.741Z,73.88
2022-12-24T12:23:08.711Z,74.08
2022-12-24T12:24:08.688Z,73.77
2022-12-24T12:25:08.672Z,73.88
2022-12-24T12:26:08.670Z,74.18
2022-12-24T12:27:08.663Z,73.98
2022-12-24T12:28:08.636Z,73.98
2022-12-24T12:29:08.651Z,73.88
2022-12-24T12:30:08.603Z,73.88
2022-12-24T12:31:15.522Z,73.77
2022-12-24T12:32:09.749Z,73.98
2022-12-24T12:33:08.614Z,73.88
2022-12-24T12:34:08.543Z,73.77
2022-12-24T12:35:08.525Z,73.88
2022-12-24T12:36:08.525Z,73.88
2022-12-24T12:37:14.447Z,73.88
2022-12-24T12:38:09.530Z,73.77
2022-12-24T12:39:08.488Z,73.67
2022-12-24T12:40:08.468Z,73.57
2022-12-24T12:41:08.444Z,73.77
2022-12-24T12:42:08.434Z,73.67
2022-12-24T12:43:13.913Z,74.08
2022-12-24T12:44:08.417Z,73.98
2022-12-24T12:45:08.398Z,73.88
2022-12-24T12:46:08.384Z,73.77
2022-12-24T12:47:08.489Z,73.77
2022-12-24T12:48:08.412Z,73.77
2022-12-24T12:49:08.343Z,73.88
2022-12-24T12:50:08.333Z,73.67
2022-12-24T12:51:08.321Z,73.57
2022-12-24T12:52:08.301Z,73.36